Time;durP1;ratioP1;P1;durP2;ratioP2;P2;SDS_P1;SDS_P2;PMS_P1;PMS_P2;Temp;Humidity;BMP_temperature;BMP_pressure;BME280_temperature;BME280_humidity;BME280_pressure;Samples;Min_cycle;Max_cycle;Signal;HPM_P1;HPM_P2
2023/03/26 00:00:34;;;;;;;32.75;11.25;;;;;;;6.23;100.00;97641.34;5138191;28;20492;-66
2023/03/26 00:03:00;;;;;;;37.38;11.57;;;;;;;6.26;100.00;97653.41;5137776;27;20218;-67
2023/03/26 00:05:26;;;;;;;32.17;11.75;;;;;;;6.30;100.00;97652.28;5138143;27;20047;-62
2023/03/26 00:07:52;;;;;;;29.13;12.55;;;;;;;6.33;100.00;97637.13;5137749;28;20062;-62
2023/03/26 00:10:19;;;;;;;29.92;12.35;;;;;;;6.36;100.00;97629.03;5138017;28;20082;-63
2023/03/26 00:12:45;;;;;;;32.13;13.27;;;;;;;6.39;100.00;97613.09;5137696;28;20047;-67
2023/03/26 00:15:11;;;;;;;33.33;13.07;;;;;;;6.36;100.00;97598.28;5138151;28;20075;-65
2023/03/26 00:17:37;;;;;;;26.35;11.38;;;;;;;6.35;100.00;97616.56;5137611;28;20420;-62
2023/03/26 00:20:04;;;;;;;30.60;11.43;;;;;;;6.38;100.00;97606.09;5138104;28;20145;-60
2023/03/26 00:22:29;;;;;;;25.60;11.20;;;;;;;6.33;100.00;97594.41;5137482;28;20083;-65
2023/03/26 00:24:55;;;;;;;32.63;12.30;;;;;;;6.36;100.00;97595.56;5137821;28;20119;-66
2023/03/26 00:27:22;;;;;;;32.80;12.35;;;;;;;6.37;100.00;97591.72;5137762;28;20051;-68
2023/03/26 00:29:48;;;;;;;28.85;12.75;;;;;;;6.40;100.00;97585.50;5137476;28;20050;-68
2023/03/26 00:32:15;;;;;;;35.25;13.00;;;;;;;6.44;100.00;97585.53;5137546;28;20051;-68
2023/03/26 00:34:44;;;;;;;35.70;12.48;;;;;;;6.43;100.00;97584.75;5137557;27;20058;-62
2023/03/26 00:37:13;;;;;;;33.60;12.30;;;;;;;6.46;100.00;97577.75;5137593;28;20050;-67
2023/03/26 00:39:39;;;;;;;28.52;13.07;;;;;;;6.48;100.00;97570.78;5137423;28;20162;-66
2023/03/26 00:42:05;;;;;;;35.83;13.77;;;;;;;6.59;100.00;97558.03;5138000;28;20393;-67
2023/03/26 00:44:32;;;;;;;28.30;11.95;;;;;;;6.69;100.00;97542.94;5137872;28;20050;-67
2023/03/26 00:46:58;;;;;;;39.00;13.18;;;;;;;6.65;100.00;97525.03;5138316;28;20070;-58
2023/03/26 00:49:25;;;;;;;32.58;14.15;;;;;;;6.67;100.00;97530.88;5137628;28;20508;-59
2023/03/26 00:51:51;;;;;;;33.38;13.60;;;;;;;6.74;100.00;97512.63;5137114;28;20043;-66
2023/03/26 00:54:18;;;;;;;44.10;14.27;;;;;;;6.72;100.00;97493.16;5137455;28;20058;-59
2023/03/26 00:56:44;;;;;;;33.38;13.45;;;;;;;6.78;100.00;97453.53;5137147;28;20051;-67
2023/03/26 00:59:10;;;;;;;32.42;13.68;;;;;;;6.84;100.00;97415.81;5137343;28;20350;-60
2023/03/26 01:01:37;;;;;;;32.33;13.60;;;;;;;6.87;100.00;97409.59;5137044;28;20085;-66
2023/03/26 01:04:26;;;;;;;32.75;12.70;;;;;;;6.80;100.00;97413.06;5137444;28;20055;-68
2023/03/26 01:06:54;;;;;;;26.63;13.35;;;;;;;6.81;100.00;97422.81;5137011;28;20047;-59
2023/03/26 01:09:25;;;;;;;32.28;12.57;;;;;;;6.91;100.00;97402.22;5137466;28;20070;-59
2023/03/26 01:11:51;;;;;;;27.40;12.57;;;;;;;6.91;100.00;97434.13;5136925;28;20137;-62
2023/03/26 01:14:20;;;;;;;28.67;11.45;;;;;;;6.99;100.00;97390.16;5137497;27;20053;-67
2023/03/26 01:16:50;;;;;;;35.80;13.13;;;;;;;6.95;100.00;97366.81;5140507;28;20055;-59
2023/03/26 01:19:23;;;;;;;29.15;11.38;;;;;;;7.02;100.00;97372.28;5140682;28;20065;-64
2023/03/26 01:21:49;;;;;;;24.67;11.50;;;;;;;7.07;100.00;97331.06;5140799;28;20051;-63
2023/03/26 01:24:15;;;;;;;32.72;13.48;;;;;;;7.08;100.00;97316.25;5140618;28;20412;-59
2023/03/26 01:27:08;;;;;;;30.60;11.50;;;;;;;7.12;100.00;97289.78;5140757;28;20055;-62
2023/03/26 01:29:42;;;;;;;28.33;12.60;;;;;;;7.17;100.00;97294.88;5137586;28;20055;-62
2023/03/26 01:32:18;;;;;;;36.72;13.15;;;;;;;7.22;100.00;97299.91;5140781;28;20096;-68
2023/03/26 01:34:56;;;;;;;35.03;14.07;;;;;;;7.11;100.00;97287.47;5140156;27;20047;-62
2023/03/26 01:37:29;;;;;;;31.98;12.50;;;;;;;7.04;100.00;97332.59;5140332;28;20047;-63
2023/03/26 01:40:05;;;;;;;28.95;11.98;;;;;;;7.09;100.00;97339.59;5140553;28;20057;-64
2023/03/26 01:42:36;;;;;;;35.53;13.27;;;;;;;6.94;100.00;97425.19;5140325;28;20047;-67
2023/03/26 01:45:09;;;;;;;39.88;13.57;;;;;;;6.96;100.00;97452.81;5140690;28;20047;-62
2023/03/26 01:47:37;;;;;;;32.88;13.52;;;;;;;7.03;100.00;97456.38;5140162;28;20044;-63
2023/03/26 01:50:03;;;;;;;38.38;12.30;;;;;;;7.14;100.00;97401.91;5140523;28;20051;-62
2023/03/26 01:52:30;;;;;;;27.10;11.85;;;;;;;7.12;100.00;97346.22;5140048;28;20083;-64
2023/03/26 01:54:57;;;;;;;33.90;11.90;;;;;;;7.20;100.00;97328.75;5139845;28;20491;-63
2023/03/26 01:57:33;;;;;;;32.58;12.95;;;;;;;7.20;100.00;97326.78;5140226;28;20057;-57
2023/03/26 02:00:19;;;;;;;29.45;11.80;;;;;;;7.14;100.00;97322.09;5140082;28;20104;-59
2023/03/26 02:02:59;;;;;;;32.58;12.25;;;;;;;7.03;100.00;97347.38;5140448;28;20083;-68
2023/03/26 02:05:31;;;;;;;25.98;12.00;;;;;;;7.09;100.00;97391.38;5139844;27;20200;-59
2023/03/26 02:08:04;;;;;;;33.40;12.93;;;;;;;7.15;100.00;97397.25;5140273;28;20203;-68
2023/03/26 02:10:35;;;;;;;24.05;11.65;;;;;;;7.17;100.00;97384.03;5139855;28;20252;-60
2023/03/26 02:13:02;;;;;;;30.90;12.57;;;;;;;7.17;100.00;97367.66;5139838;28;20054;-63
2023/03/26 02:15:28;;;;;;;30.02;12.60;;;;;;;7.16;100.00;97355.97;5139919;28;20059;-61
2023/03/26 02:17:54;;;;;;;23.92;10.57;;;;;;;7.08;100.00;97357.13;5139695;28;20145;-67
2023/03/26 02:20:20;;;;;;;28.23;11.80;;;;;;;7.08;100.00;97335.31;5139618;28;20377;-64
2023/03/26 02:22:47;;;;;;;26.05;10.65;;;;;;;7.00;100.00;97331.81;5139474;28;20424;-62
2023/03/26 02:25:15;;;;;;;25.13;10.77;;;;;;;6.99;100.00;97337.63;5139720;28;20137;-68
2023/03/26 02:27:43;;;;;;;26.55;11.10;;;;;;;6.86;100.00;97352.78;5138371;27;20134;-67
2023/03/26 02:30:11;;;;;;;25.60;11.55;;;;;;;6.75;100.00;97396.31;5139850;28;20137;-67
2023/03/26 02:32:37;;;;;;;28.52;12.13;;;;;;;6.78;100.00;97425.50;5139348;28;20047;-59
2023/03/26 02:35:05;;;;;;;37.63;12.77;;;;;;;6.71;100.00;97414.59;5139700;27;20439;-66
2023/03/26 02:37:32;;;;;;;27.75;11.32;;;;;;;6.68;100.00;97428.97;5139185;28;20503;-63
2023/03/26 02:39:58;;;;;;;25.45;12.57;;;;;;;6.61;100.00;97459.66;5139198;28;20051;-64
2023/03/26 02:42:24;;;;;;;35.35;11.85;;;;;;;6.58;100.00;97485.69;5139477;28;20061;-66
2023/03/26 02:44:51;;;;;;;25.65;11.10;;;;;;;6.54;100.00;97514.84;5139384;28;20047;-62
2023/03/26 02:47:17;;;;;;;25.88;11.30;;;;;;;6.52;100.00;97549.03;5139688;28;20047;-66
2023/03/26 02:49:43;;;;;;;30.67;12.50;;;;;;;6.40;100.00;97580.06;5139302;28;20055;-61
2023/03/26 02:52:09;;;;;;;30.35;12.35;;;;;;;6.38;100.00;97614.25;5139210;28;20150;-60
2023/03/26 02:54:35;;;;;;;33.15;13.23;;;;;;;6.49;100.00;97642.34;5139109;28;20199;-66
2023/03/26 02:57:02;;;;;;;34.22;13.02;;;;;;;6.47;100.00;97626.41;5139450;28;20549;-65
2023/03/26 02:59:28;;;;;;;37.33;12.93;;;;;;;6.43;100.00;97641.94;5138832;28;20062;-63
2023/03/26 03:01:54;;;;;;;41.03;13.32;;;;;;;6.48;100.00;97663.34;5139375;28;20051;-60
2023/03/26 03:04:20;;;;;;;46.47;15.35;;;;;;;6.57;100.00;97649.44;5138814;27;20137;-59
2023/03/26 03:06:51;;;;;;;30.92;12.90;;;;;;;6.69;100.00;97645.66;5139244;28;20051;-62
2023/03/26 03:09:18;;;;;;;32.08;12.52;;;;;;;6.61;100.00;97628.47;5139002;28;20051;-67
2023/03/26 03:11:43;;;;;;;35.88;13.88;;;;;;;6.68;100.00;97649.53;5138912;28;20051;-58
2023/03/26 03:14:09;;;;;;;39.63;12.77;;;;;;;6.79;100.00;97628.59;5139215;28;20053;-63
2023/03/26 03:16:35;;;;;;;32.70;12.00;;;;;;;6.86;100.00;97617.75;5138844;28;20075;-65
2023/03/26 03:19:02;;;;;;;29.77;11.30;;;;;;;6.87;100.00;97583.94;5138944;28;20051;-68
2023/03/26 03:21:28;;;;;;;35.70;12.68;;;;;;;6.92;100.00;97577.34;5138724;28;20143;-66
2023/03/26 03:23:54;;;;;;;32.83;12.48;;;;;;;6.87;100.00;97562.16;5138566;28;20057;-59
2023/03/26 03:26:26;;;;;;;35.72;13.38;;;;;;;6.90;100.00;97563.31;5138523;28;20137;-65
2023/03/26 03:28:53;;;;;;;27.65;11.68;;;;;;;6.94;100.00;97556.75;5138863;28;20113;-67
2023/03/26 03:31:20;;;;;;;33.60;11.85;;;;;;;6.99;100.00;97559.09;5138386;28;20148;-58
2023/03/26 03:33:46;;;;;;;27.13;10.82;;;;;;;7.02;100.00;97555.59;5138811;28;20051;-65
2023/03/26 03:36:16;;;;;;;36.60;11.25;;;;;;;7.05;100.00;97560.28;5138475;27;20079;-67
2023/03/26 03:38:43;;;;;;;34.25;12.85;;;;;;;6.99;100.00;97544.69;5138052;27;20077;-65
2023/03/26 03:41:10;;;;;;;26.05;11.38;;;;;;;6.98;100.00;97549.38;5138393;28;20138;-65
2023/03/26 03:43:36;;;;;;;31.35;11.88;;;;;;;6.96;100.00;97561.78;5138162;28;20428;-65
2023/03/26 03:46:02;;;;;;;28.80;11.93;;;;;;;7.04;100.00;97558.75;5138527;28;20138;-61
2023/03/26 03:48:28;;;;;;;29.17;11.63;;;;;;;7.05;100.00;97575.88;5138283;28;20061;-64
2023/03/26 03:50:55;;;;;;;27.35;10.35;;;;;;;7.04;100.00;97575.09;5138494;28;20057;-60
2023/03/26 03:53:24;;;;;;;31.73;11.20;;;;;;;7.02;100.00;97571.19;5137981;28;20413;-61
2023/03/26 03:55:51;;;;;;;24.85;9.93;;;;;;;7.01;100.00;97583.25;5138513;28;20384;-63
2023/03/26 03:58:20;;;;;;;30.23;11.93;;;;;;;7.05;100.00;97586.78;5137880;28;20047;-67
2023/03/26 04:00:47;;;;;;;38.35;12.98;;;;;;;7.03;100.00;97589.88;5138392;28;20051;-63
2023/03/26 04:03:13;;;;;;;37.40;13.05;;;;;;;7.03;100.00;97599.97;5138066;28;20539;-67
2023/03/26 04:05:39;;;;;;;27.55;11.75;;;;;;;7.16;100.00;97605.91;5137754;27;20091;-66
2023/03/26 04:08:05;;;;;;;33.97;12.38;;;;;;;7.15;100.00;97593.44;5138112;28;20051;-59
2023/03/26 04:10:32;;;;;;;31.20;12.98;;;;;;;7.22;100.00;97607.13;5137945;28;20056;-63
2023/03/26 04:12:58;;;;;;;31.75;13.43;;;;;;;7.22;100.00;97586.09;5138132;28;20150;-58
2023/03/26 04:15:24;;;;;;;28.33;12.80;;;;;;;7.29;100.00;97615.34;5137961;28;20047;-63
2023/03/26 04:17:50;;;;;;;35.55;12.25;;;;;;;7.34;100.00;97604.09;5137808;28;20420;-63
2023/03/26 04:20:18;;;;;;;35.17;13.30;;;;;;;7.03;100.00;97608.16;5137767;28;20344;-64
2023/03/26 04:22:44;;;;;;;27.70;12.45;;;;;;;7.24;100.00;97651.13;5138052;28;20058;-67
2023/03/26 04:25:11;;;;;;;39.40;14.60;;;;;;;7.41;100.00;97630.59;5137815;28;20065;-59
2023/03/26 04:27:40;;;;;;;29.35;12.65;;;;;;;7.52;100.00;97596.75;5137998;28;20138;-59
2023/03/26 04:30:08;;;;;;;27.05;12.45;;;;;;;7.53;100.00;97581.16;5137373;28;20361;-68
2023/03/26 04:32:37;;;;;;;33.50;13.88;;;;;;;7.16;100.00;97595.00;5137575;28;20146;-65
2023/03/26 04:35:04;;;;;;;28.15;14.38;;;;;;;7.52;100.00;97640.38;5137437;27;20055;-68
2023/03/26 04:37:33;;;;;;;33.55;16.30;;;;;;;7.60;100.00;97633.03;5137494;28;20125;-59
2023/03/26 04:39:59;;;;;;;38.65;16.52;;;;;;;7.11;100.00;97663.50;5137657;28;20327;-60
2023/03/26 04:42:27;;;;;;;39.97;14.52;;;;;;;7.48;100.00;97742.44;5137471;28;20137;-60
2023/03/26 04:44:54;;;;;;;38.28;15.85;;;;;;;7.42;100.00;97784.84;5137708;28;20183;-57
2023/03/26 04:47:20;;;;;;;37.35;15.45;;;;;;;7.44;100.00;97794.22;5137323;28;20061;-61
2023/03/26 04:49:46;;;;;;;34.78;14.30;;;;;;;7.17;100.00;97834.47;5136743;27;20054;-64
2023/03/26 04:52:13;;;;;;;33.22;14.18;;;;;;;7.39;100.00;97873.63;5137239;28;20127;-60
2023/03/26 04:54:39;;;;;;;33.10;13.95;;;;;;;7.47;100.00;97890.84;5137664;28;20142;-60
2023/03/26 04:57:08;;;;;;;26.90;11.13;;;;;;;7.26;100.00;97907.75;5137071;28;20176;-62
2023/03/26 04:59:35;;;;;;;40.45;11.70;;;;;;;7.35;100.00;97893.84;5137234;28;20138;-63
2023/03/26 05:02:04;;;;;;;21.30;8.80;;;;;;;7.62;100.00;97873.44;5137406;28;20137;-67
2023/03/26 05:04:30;;;;;;;19.15;10.00;;;;;;;7.82;100.00;97873.22;5137041;27;20420;-67
2023/03/26 05:06:57;;;;;;;14.07;8.38;;;;;;;7.40;100.00;97826.13;5137319;28;20358;-59
2023/03/26 05:09:23;;;;;;;13.00;6.22;;;;;;;7.78;100.00;97781.22;5137119;28;20142;-67
2023/03/26 05:11:49;;;;;;;14.35;7.45;;;;;;;7.87;100.00;97750.09;5137321;28;20063;-64
2023/03/26 05:14:15;;;;;;;17.38;6.60;;;;;;;7.91;100.00;97732.56;5137117;28;20108;-63
2023/03/26 05:16:43;;;;;;;17.02;6.50;;;;;;;7.75;100.00;97702.09;5137269;28;20047;-66
2023/03/26 05:19:10;;;;;;;14.07;6.50;;;;;;;7.77;100.00;97661.56;5136785;28;20435;-60
2023/03/26 05:21:36;;;;;;;11.55;6.30;;;;;;;7.75;100.00;97648.31;5137277;28;20439;-58
2023/03/26 05:24:02;;;;;;;13.65;6.70;;;;;;;7.93;100.00;97634.75;5136706;28;20079;-59
2023/03/26 05:26:28;;;;;;;13.57;6.65;;;;;;;8.02;100.00;97645.28;5137009;28;20047;-66
2023/03/26 05:28:54;;;;;;;12.40;6.65;;;;;;;7.96;100.00;97661.28;5137044;28;20142;-58
2023/03/26 05:31:20;;;;;;;16.15;7.43;;;;;;;7.95;100.00;97669.81;5136857;28;20364;-60
2023/03/26 05:33:47;;;;;;;17.38;6.88;;;;;;;8.04;100.00;97667.53;5136976;28;20058;-65
2023/03/26 05:36:16;;;;;;;12.30;7.13;;;;;;;8.09;100.00;97674.56;5136503;27;20079;-61
2023/03/26 05:38:46;;;;;;;14.98;8.30;;;;;;;7.98;100.00;97675.28;5136793;28;20149;-63
2023/03/26 05:41:12;;;;;;;20.08;6.70;;;;;;;8.17;100.00;97657.06;5136304;28;20412;-59
2023/03/26 05:43:38;;;;;;;11.68;6.57;;;;;;;8.24;100.00;97673.44;5136771;28;20405;-68
2023/03/26 05:46:05;;;;;;;14.98;6.82;;;;;;;8.27;100.00;97674.63;5136373;28;20100;-68
2023/03/26 05:48:31;;;;;;;13.02;6.88;;;;;;;8.17;100.00;97671.47;5136265;28;20051;-68
2023/03/26 05:50:57;;;;;;;13.07;7.53;;;;;;;8.34;100.00;97663.72;5136229;28;20051;-67
2023/03/26 05:53:26;;;;;;;11.80;7.45;;;;;;;8.13;100.00;97676.16;5136823;28;20047;-66
2023/03/26 05:55:56;;;;;;;9.43;6.53;;;;;;;8.35;100.00;97676.97;5136571;28;20055;-61
2023/03/26 05:58:23;;;;;;;12.73;6.80;;;;;;;8.30;100.00;97682.84;5136329;28;20058;-65
2023/03/26 06:00:55;;;;;;;12.45;7.25;;;;;;;8.43;100.00;97681.34;5136864;27;20047;-64
2023/03/26 06:03:22;;;;;;;17.00;7.03;;;;;;;8.50;100.00;97696.97;5139700;28;20051;-63
2023/03/26 06:05:47;;;;;;;13.27;6.95;;;;;;;8.59;100.00;97688.38;5139835;27;20411;-60
2023/03/26 06:08:13;;;;;;;13.60;5.93;;;;;;;8.65;100.00;97690.34;5139765;28;20142;-57
2023/03/26 06:10:40;;;;;;;11.57;6.35;;;;;;;8.64;100.00;97696.97;5140086;28;20043;-63
2023/03/26 06:13:06;;;;;;;12.18;6.05;;;;;;;8.88;100.00;97695.44;5139653;28;20061;-68
2023/03/26 06:15:35;;;;;;;9.20;5.68;;;;;;;8.76;100.00;97704.00;5140105;28;20379;-62
2023/03/26 06:18:01;;;;;;;12.38;5.47;;;;;;;8.89;100.00;97693.50;5139566;28;20107;-61
2023/03/26 06:20:27;;;;;;;9.70;5.72;;;;;;;9.08;100.00;97709.53;5139345;28;20134;-61
2023/03/26 06:22:53;;;;;;;7.47;5.15;;;;;;;9.19;100.00;97736.84;5139707;28;20055;-68
2023/03/26 06:25:18;;;;;;;9.10;5.35;;;;;;;8.83;100.00;97775.09;5139316;28;20410;-67
2023/03/26 06:27:45;;;;;;;7.47;4.43;;;;;;;9.11;100.00;97776.31;5139710;28;20051;-64
2023/03/26 06:30:12;;;;;;;10.40;5.00;;;;;;;9.10;100.00;97796.63;5139445;28;20138;-68
2023/03/26 06:32:38;;;;;;;9.50;4.95;;;;;;;9.14;100.00;97802.88;5139673;28;20149;-67
2023/03/26 06:35:05;;;;;;;6.30;4.80;;;;;;;9.21;100.00;97816.56;5139376;27;20412;-62
2023/03/26 06:37:30;;;;;;;8.50;4.88;;;;;;;9.06;100.00;97834.88;5139615;28;20073;-59
2023/03/26 06:39:56;;;;;;;10.65;5.53;;;;;;;9.14;100.00;97836.47;5138934;28;20458;-63
2023/03/26 06:42:22;;;;;;;8.15;4.55;;;;;;;9.27;100.00;97836.88;5139510;28;20141;-67
2023/03/26 06:44:49;;;;;;;7.95;5.10;;;;;;;9.36;100.00;97833.75;5139169;28;20105;-67
2023/03/26 06:47:15;;;;;;;6.70;5.03;;;;;;;9.46;100.00;97857.59;5139518;28;20057;-64
2023/03/26 06:49:41;;;;;;;6.47;4.88;;;;;;;9.43;100.00;97852.94;5138963;28;20146;-66
2023/03/26 06:52:07;;;;;;;7.97;5.15;;;;;;;9.48;100.00;97852.53;5139464;28;20081;-69
2023/03/26 06:54:32;;;;;;;10.60;5.05;;;;;;;9.58;100.00;97861.94;5139606;28;20047;-64
2023/03/26 06:56:58;;;;;;;8.95;5.15;;;;;;;9.52;100.00;97869.72;5139543;28;20082;-62
2023/03/26 06:59:24;;;;;;;9.45;4.68;;;;;;;9.61;100.00;97861.16;5139088;28;20054;-60
2023/03/26 07:01:51;;;;;;;11.10;5.50;;;;;;;9.61;100.00;97867.41;5138968;28;20051;-58
2023/03/26 07:04:17;;;;;;;8.35;5.38;;;;;;;9.51;100.00;97876.38;5138426;27;20134;-59
2023/03/26 07:06:43;;;;;;;9.70;4.97;;;;;;;9.47;100.00;97885.75;5138617;28;20164;-61
2023/03/26 07:09:09;;;;;;;9.30;4.85;;;;;;;9.54;100.00;97870.13;5139070;28;20051;-60
2023/03/26 07:11:34;;;;;;;7.00;4.90;;;;;;;9.56;100.00;97870.53;5138692;28;20324;-65
2023/03/26 07:14:00;;;;;;;12.65;5.38;;;;;;;9.65;100.00;97873.66;5138457;27;20047;-67
2023/03/26 07:16:26;;;;;;;9.65;5.03;;;;;;;9.76;100.00;97879.13;5138528;28;20082;-69
2023/03/26 07:18:54;;;;;;;9.63;4.88;;;;;;;9.77;100.00;97879.94;5138868;28;20061;-67
2023/03/26 07:21:20;;;;;;;9.35;5.22;;;;;;;9.85;100.00;97889.69;5138755;28;20050;-69
2023/03/26 07:23:47;;;;;;;5.00;4.22;;;;;;;9.82;100.00;97890.47;5138708;28;20062;-62
2023/03/26 07:26:25;;;;;;;6.63;4.97;;;;;;;9.63;100.00;97900.63;5138468;28;20047;-59
2023/03/26 07:28:59;;;;;;;9.05;4.85;;;;;;;9.69;100.00;97892.03;5138541;28;20131;-66
2023/03/26 07:31:33;;;;;;;6.45;5.22;;;;;;;9.74;100.00;97895.16;5138767;28;20053;-60
2023/03/26 07:34:07;;;;;;;13.88;5.22;;;;;;;9.70;100.00;97897.13;5138346;28;20138;-65
2023/03/26 07:36:44;;;;;;;10.60;4.88;;;;;;;9.63;100.00;97888.91;5138675;27;20160;-64
2023/03/26 07:39:21;;;;;;;7.35;4.97;;;;;;;9.74;100.00;97883.44;5138071;28;20139;-65
2023/03/26 07:41:50;;;;;;;7.80;5.45;;;;;;;9.48;100.00;97899.03;5138100;28;20405;-59
2023/03/26 07:44:36;;;;;;;10.15;5.55;;;;;;;9.63;100.00;97895.16;5138517;28;20047;-60
2023/03/26 07:47:14;;;;;;;7.35;4.20;;;;;;;9.65;100.00;97905.72;5138271;28;20055;-62
2023/03/26 07:49:42;;;;;;;6.80;5.43;;;;;;;9.38;100.00;97900.56;5138425;28;20065;-59
2023/03/26 07:52:09;;;;;;;6.40;4.88;;;;;;;9.55;100.00;97906.47;5138007;28;20051;-67
2023/03/26 07:54:39;;;;;;;11.20;5.05;;;;;;;9.59;100.00;97897.09;5138425;28;20134;-69
2023/03/26 07:57:13;;;;;;;7.40;4.70;;;;;;;9.54;100.00;97896.72;5138032;28;20146;-62
2023/03/26 07:59:48;;;;;;;7.90;5.00;;;;;;;9.62;100.00;97901.00;5137919;28;20432;-60
2023/03/26 08:02:36;;;;;;;6.93;5.15;;;;;;;9.59;100.00;97905.31;5137949;28;20157;-68
2023/03/26 08:05:25;;;;;;;6.55;4.72;;;;;;;9.42;100.00;97900.59;5137780;27;20133;-61
2023/03/26 08:08:07;;;;;;;11.10;5.13;;;;;;;9.52;100.00;97885.38;5138225;28;20058;-64
2023/03/26 08:10:42;;;;;;;8.38;4.70;;;;;;;9.48;100.00;97887.31;5137771;28;20141;-62
2023/03/26 08:13:22;;;;;;;7.78;4.38;;;;;;;9.57;100.00;97885.00;5137818;28;20104;-67
2023/03/26 08:15:59;;;;;;;6.85;4.97;;;;;;;9.64;100.00;97887.72;5137614;28;20133;-69
2023/03/26 08:18:43;;;;;;;7.80;4.82;;;;;;;9.63;100.00;97884.22;5137740;28;20093;-67
2023/03/26 08:21:15;;;;;;;12.25;6.00;;;;;;;9.81;100.00;97867.78;5137511;28;20138;-59
2023/03/26 08:23:50;;;;;;;7.13;4.65;;;;;;;9.79;100.00;97875.59;5137271;27;20062;-62
2023/03/26 08:26:24;;;;;;;6.60;5.05;;;;;;;10.03;100.00;97871.31;5136980;28;20141;-59
2023/03/26 08:29:01;;;;;;;7.38;4.30;;;;;;;10.18;100.00;97898.69;5137693;28;20181;-68
2023/03/26 08:31:32;;;;;;;5.55;4.57;;;;;;;10.11;100.00;97877.56;5137523;28;20061;-63
2023/03/26 08:33:58;;;;;;;5.55;4.22;;;;;;;10.69;100.00;97883.72;5137710;28;20061;-65
2023/03/26 08:36:25;;;;;;;5.22;4.40;;;;;;;10.66;100.00;97899.00;5137181;27;20055;-69
2023/03/26 08:38:51;;;;;;;6.80;4.80;;;;;;;10.92;100.00;97907.94;5137481;28;20047;-68
2023/03/26 08:41:45;;;;;;;7.13;4.65;;;;;;;11.02;100.00;97926.31;5137236;28;20058;-67
2023/03/26 08:44:49;;;;;;;9.65;4.65;;;;;;;10.79;100.00;97933.03;5137645;28;20047;-68
2023/03/26 08:47:44;;;;;;;3.88;3.47;;;;;;;11.04;100.00;97924.72;5137723;28;20051;-62
2023/03/26 08:50:46;;;;;;;5.28;3.70;;;;;;;10.95;100.00;97894.19;5137632;28;20051;-64
2023/03/26 08:54:02;;;;;;;6.82;3.67;;;;;;;10.64;100.00;97871.22;5138440;28;20405;-66
2023/03/26 08:56:31;;;;;;;;;;;;;;;10.63;100.00;97853.22;5137859;28;20103;-59
2023/03/26 08:59:32;;;;;;;4.00;3.13;;;;;;;10.47;100.00;97858.34;5137167;28;20029;-68
2023/03/26 09:02:21;;;;;;;7.43;3.88;;;;;;;10.58;100.00;97883.75;5102640;28;20134;-58
2023/03/26 09:05:20;;;;;;;4.57;3.90;;;;;;;10.54;100.00;97902.19;5137166;27;20051;-66
2023/03/26 09:08:13;;;;;;;7.53;3.80;;;;;;;10.54;100.00;97881.03;5137138;28;20147;-68
2023/03/26 09:11:19;;;;;;;6.63;4.13;;;;;;;10.68;100.00;97907.63;5137279;28;20057;-61
2023/03/26 09:14:20;;;;;;;5.78;4.40;;;;;;;10.95;100.00;97918.88;5137057;28;20134;-68
2023/03/26 09:17:16;;;;;;;8.60;4.57;;;;;;;10.91;100.00;97887.97;5137091;28;20138;-64
2023/03/26 09:20:07;;;;;;;8.20;4.07;;;;;;;10.73;100.00;97882.56;5133455;28;20050;-60
2023/03/26 09:23:15;;;;;;;5.63;4.68;;;;;;;10.81;100.00;97881.34;5091073;28;20439;-64
2023/03/26 09:26:00;;;;;;;4.38;3.65;;;;;;;10.89;100.00;97890.31;5136617;28;20329;-65
2023/03/26 09:29:14;;;;;;;6.05;3.90;;;;;;;11.00;100.00;97877.34;5137000;28;20051;-61
2023/03/26 09:32:16;;;;;;;9.35;4.50;;;;;;;10.75;100.00;97890.38;5115936;28;20432;-61
2023/03/26 09:35:09;;;;;;;6.20;4.15;;;;;;;11.08;100.00;97911.00;5136654;27;20377;-62
2023/03/26 09:37:49;;;;;;;7.53;5.32;;;;;;;10.80;100.00;97873.53;5140015;28;20139;-63
2023/03/26 09:40:18;;;;;;;5.97;4.50;;;;;;;10.88;100.00;97855.06;5139837;28;20142;-67
2023/03/26 09:42:50;;;;;;;8.35;4.82;;;;;;;10.98;100.00;97838.56;5140463;28;20043;-59
2023/03/26 09:45:47;;;;;;;10.48;5.60;;;;;;;10.93;100.00;97805.28;5140191;28;20046;-60
2023/03/26 09:48:43;;;;;;;8.98;5.03;;;;;;;10.94;100.00;97823.31;5140152;28;20051;-64
2023/03/26 09:51:27;;;;;;;5.75;4.90;;;;;;;11.02;100.00;97835.81;5140412;28;20055;-66
2023/03/26 09:54:27;;;;;;;9.50;5.22;;;;;;;10.93;100.00;97838.19;5139888;28;20065;-66
2023/03/26 09:57:04;;;;;;;8.80;5.05;;;;;;;10.90;100.00;97784.19;5140164;28;20145;-64
2023/03/26 09:59:56;;;;;;;7.93;5.15;;;;;;;10.76;100.00;97799.53;5140117;28;20047;-66
2023/03/26 10:02:41;;;;;;;8.85;4.82;;;;;;;10.29;100.00;97823.56;5139859;28;20196;-63
2023/03/26 10:05:33;;;;;;;6.95;5.45;;;;;;;10.86;100.00;97825.28;5140297;27;20133;-66
2023/03/26 10:08:13;;;;;;;8.57;4.95;;;;;;;11.00;100.00;97777.84;5139735;28;20054;-59
2023/03/26 10:10:47;;;;;;;12.98;5.65;;;;;;;11.43;100.00;97781.06;5139963;28;20365;-68
2023/03/26 10:13:25;;;;;;;10.63;5.05;;;;;;;11.76;100.00;97682.72;5139718;28;20043;-58
2023/03/26 10:16:03;;;;;;;7.90;4.72;;;;;;;12.10;100.00;97534.44;5139301;28;20043;-69
2023/03/26 10:18:40;;;;;;;6.80;4.55;;;;;;;12.43;100.00;97259.94;5139916;28;20051;-65
2023/03/26 10:21:13;;;;;;;6.80;4.50;;;;;;;12.60;100.00;97074.63;5139842;28;20137;-66
2023/03/26 10:23:55;;;;;;;6.50;4.27;;;;;;;12.81;100.00;96981.81;5139746;28;20094;-64
2023/03/26 10:26:56;;;;;;;7.35;3.95;;;;;;;12.76;100.00;96740.38;5139544;28;20420;-58
2023/03/26 10:29:40;;;;;;;4.40;3.80;;;;;;;12.41;100.00;96855.63;5139403;28;20069;-68
2023/03/26 10:32:21;;;;;;;6.53;4.90;;;;;;;12.44;100.00;96846.53;5139832;28;20420;-64
2023/03/26 10:35:05;;;;;;;5.57;4.35;;;;;;;12.63;100.00;96941.06;5139153;27;20468;-66
2023/03/26 10:37:44;;;;;;;5.53;4.33;;;;;;;12.70;100.00;96762.16;5139412;28;20047;-60
2023/03/26 10:40:22;;;;;;;4.22;3.80;;;;;;;12.78;100.00;96743.47;5139310;28;20055;-67
2023/03/26 10:43:13;;;;;;;6.63;3.90;;;;;;;13.03;100.00;96674.75;5139267;28;20047;-66
2023/03/26 10:45:50;;;;;;;5.60;3.55;;;;;;;13.30;100.00;96619.25;5139731;28;20134;-68
2023/03/26 10:48:36;;;;;;;4.20;3.45;;;;;;;12.60;100.00;96526.91;5137873;27;20083;-58
2023/03/26 10:51:32;;;;;;;4.75;3.03;;;;;;;12.47;100.00;96573.63;5138924;28;20485;-68
2023/03/26 10:54:02;;;;;;;4.13;2.95;;;;;;;12.63;100.00;96545.25;5139216;28;20119;-60
2023/03/26 10:56:34;;;;;;;3.00;2.55;;;;;;;12.85;100.00;96484.81;5138912;28;20051;-59
2023/03/26 10:59:05;;;;;;;3.85;3.05;;;;;;;12.74;100.00;96473.44;5139219;28;20053;-64
2023/03/26 11:01:39;;;;;;;5.88;3.70;;;;;;;12.71;100.00;96530.81;5138853;28;20043;-59
2023/03/26 11:04:21;;;;;;;3.55;2.90;;;;;;;12.64;100.00;96522.81;5139102;28;20111;-66
2023/03/26 11:06:58;;;;;;;5.38;2.97;;;;;;;12.55;100.00;96543.91;5139105;28;20145;-65
2023/03/26 11:09:34;;;;;;;4.63;3.50;;;;;;;12.61;100.00;96520.94;5138883;28;20199;-61
2023/03/26 11:12:07;;;;;;;11.43;3.10;;;;;;;12.80;100.00;96508.16;5139077;28;20047;-62
2023/03/26 11:14:41;;;;;;;3.75;3.00;;;;;;;12.89;100.00;96526.69;5138607;28;20073;-67
2023/03/26 11:17:16;;;;;;;7.35;3.25;;;;;;;13.28;100.00;96484.13;5139125;28;20328;-69
2023/03/26 11:19:49;;;;;;;6.18;3.85;;;;;;;13.23;100.00;96437.13;5138452;28;20141;-62
2023/03/26 11:22:27;;;;;;;5.15;3.50;;;;;;;13.40;100.00;96433.75;5138539;28;20103;-66
2023/03/26 11:25:08;;;;;;;6.72;3.67;;;;;;;13.27;100.00;96448.81;5138799;28;20079;-66
2023/03/26 11:27:46;;;;;;;7.65;3.47;;;;;;;13.23;100.00;96448.91;5138596;28;20065;-65
2023/03/26 11:30:27;;;;;;;5.78;3.47;;;;;;;13.45;100.00;96437.91;5138813;28;20147;-62
2023/03/26 11:32:56;;;;;;;4.53;3.75;;;;;;;12.74;100.00;96435.69;5138297;28;20151;-66
2023/03/26 11:35:27;;;;;;;8.05;4.07;;;;;;;12.92;100.00;96430.34;5138667;27;20133;-59
2023/03/26 11:37:55;;;;;;;4.85;3.83;;;;;;;12.92;100.00;96430.34;5138506;28;20141;-67
2023/03/26 11:40:30;;;;;;;4.70;3.35;;;;;;;13.13;100.00;96428.81;5138080;28;20383;-60
2023/03/26 11:43:00;;;;;;;6.80;3.97;;;;;;;12.91;100.00;96428.81;5138494;28;20142;-69
2023/03/26 11:45:30;;;;;;;4.65;3.47;;;;;;;13.18;100.00;96425.47;5138306;28;20070;-65